sensor_id;sensor_type;location;lat;lon;timestamp;P1;durP1;ratioP1;P2;durP2;ratioP2
63217;SDS011;49314;48.278;16.378;2024-01-30T00:00:28;20.20;;;18.02;;
63217;SDS011;49314;48.278;16.378;2024-01-30T00:02:53;32.22;;;21.35;;
63217;SDS011;49314;48.278;16.378;2024-01-30T00:05:18;22.35;;;15.35;;
63217;SDS011;49314;48.278;16.378;2024-01-30T00:07:43;19.88;;;17.65;;
63217;SDS011;49314;48.278;16.378;2024-01-30T00:10:09;23.70;;;20.52;;
63217;SDS011;49314;48.278;16.378;2024-01-30T00:12:34;21.55;;;17.00;;
63217;SDS011;49314;48.278;16.378;2024-01-30T00:14:59;20.52;;;18.35;;
63217;SDS011;49314;48.278;16.378;2024-01-30T00:17:24;17.95;;;16.10;;
63217;SDS011;49314;48.278;16.378;2024-01-30T00:19:51;25.17;;;22.60;;
63217;SDS011;49314;48.278;16.378;2024-01-30T00:22:17;18.80;;;16.60;;
63217;SDS011;49314;48.278;16.378;2024-01-30T00:24:42;21.63;;;19.48;;
63217;SDS011;49314;48.278;16.378;2024-01-30T00:27:07;19.45;;;17.58;;
63217;SDS011;49314;48.278;16.378;2024-01-30T00:29:33;25.85;;;23.42;;
63217;SDS011;49314;48.278;16.378;2024-01-30T00:31:59;22.25;;;20.30;;
63217;SDS011;49314;48.278;16.378;2024-01-30T00:34:24;21.08;;;19.02;;
63217;SDS011;49314;48.278;16.378;2024-01-30T00:36:49;21.13;;;19.00;;
63217;SDS011;49314;48.278;16.378;2024-01-30T00:39:14;19.83;;;17.80;;
63217;SDS011;49314;48.278;16.378;2024-01-30T00:41:40;20.65;;;18.65;;
63217;SDS011;49314;48.278;16.378;2024-01-30T00:44:06;21.50;;;19.40;;
63217;SDS011;49314;48.278;16.378;2024-01-30T00:46:31;17.60;;;16.00;;
63217;SDS011;49314;48.278;16.378;2024-01-30T00:48:56;20.27;;;18.10;;
63217;SDS011;49314;48.278;16.378;2024-01-30T00:51:22;19.77;;;17.77;;
63217;SDS011;49314;48.278;16.378;2024-01-30T00:53:47;20.70;;;18.33;;
63217;SDS011;49314;48.278;16.378;2024-01-30T00:56:12;20.15;;;18.15;;
63217;SDS011;49314;48.278;16.378;2024-01-30T00:58:38;18.95;;;15.98;;
63217;SDS011;49314;48.278;16.378;2024-01-30T01:01:03;20.08;;;18.08;;
63217;SDS011;49314;48.278;16.378;2024-01-30T01:03:29;20.70;;;18.65;;
63217;SDS011;49314;48.278;16.378;2024-01-30T01:05:54;24.13;;;21.70;;
63217;SDS011;49314;48.278;16.378;2024-01-30T01:08:19;20.85;;;18.85;;
63217;SDS011;49314;48.278;16.378;2024-01-30T01:10:45;19.35;;;17.55;;
63217;SDS011;49314;48.278;16.378;2024-01-30T01:13:10;21.00;;;18.88;;
63217;SDS011;49314;48.278;16.378;2024-01-30T01:15:36;21.13;;;18.90;;
63217;SDS011;49314;48.278;16.378;2024-01-30T01:18:02;23.00;;;20.85;;
63217;SDS011;49314;48.278;16.378;2024-01-30T01:20:27;20.40;;;18.50;;
63217;SDS011;49314;48.278;16.378;2024-01-30T01:22:52;24.50;;;22.30;;
63217;SDS011;49314;48.278;16.378;2024-01-30T01:25:18;20.40;;;18.48;;
63217;SDS011;49314;48.278;16.378;2024-01-30T01:27:43;22.00;;;19.70;;
63217;SDS011;49314;48.278;16.378;2024-01-30T01:30:09;20.70;;;18.77;;
63217;SDS011;49314;48.278;16.378;2024-01-30T01:32:35;20.52;;;18.60;;
63217;SDS011;49314;48.278;16.378;2024-01-30T01:35:01;21.17;;;18.98;;
63217;SDS011;49314;48.278;16.378;2024-01-30T01:37:27;20.00;;;18.20;;
63217;SDS011;49314;48.278;16.378;2024-01-30T01:39:52;23.65;;;21.35;;
63217;SDS011;49314;48.278;16.378;2024-01-30T01:42:17;21.02;;;18.38;;
63217;SDS011;49314;48.278;16.378;2024-01-30T01:44:43;18.70;;;16.80;;
63217;SDS011;49314;48.278;16.378;2024-01-30T01:47:08;18.45;;;16.65;;
63217;SDS011;49314;48.278;16.378;2024-01-30T01:49:33;20.42;;;17.48;;
63217;SDS011;49314;48.278;16.378;2024-01-30T01:51:59;19.67;;;17.75;;
63217;SDS011;49314;48.278;16.378;2024-01-30T01:54:25;21.98;;;19.85;;
63217;SDS011;49314;48.278;16.378;2024-01-30T01:56:50;21.90;;;17.65;;
63217;SDS011;49314;48.278;16.378;2024-01-30T01:59:16;18.73;;;16.77;;
63217;SDS011;49314;48.278;16.378;2024-01-30T02:01:42;22.73;;;20.83;;
63217;SDS011;49314;48.278;16.378;2024-01-30T02:04:08;23.10;;;20.95;;
63217;SDS011;49314;48.278;16.378;2024-01-30T02:06:33;19.67;;;17.48;;
63217;SDS011;49314;48.278;16.378;2024-01-30T02:08:59;16.85;;;15.05;;
63217;SDS011;49314;48.278;16.378;2024-01-30T02:11:24;20.40;;;17.50;;
63217;SDS011;49314;48.278;16.378;2024-01-30T02:13:50;20.48;;;18.63;;
63217;SDS011;49314;48.278;16.378;2024-01-30T02:16:15;23.35;;;20.95;;
63217;SDS011;49314;48.278;16.378;2024-01-30T02:18:42;21.35;;;19.20;;
63217;SDS011;49314;48.278;16.378;2024-01-30T02:21:10;16.67;;;14.55;;
63217;SDS011;49314;48.278;16.378;2024-01-30T02:23:35;20.27;;;18.45;;
63217;SDS011;49314;48.278;16.378;2024-01-30T02:26:01;24.80;;;22.70;;
63217;SDS011;49314;48.278;16.378;2024-01-30T02:28:26;23.65;;;21.33;;
63217;SDS011;49314;48.278;16.378;2024-01-30T02:30:55;24.38;;;22.15;;
63217;SDS011;49314;48.278;16.378;2024-01-30T02:33:20;21.40;;;19.30;;
63217;SDS011;49314;48.278;16.378;2024-01-30T02:35:47;22.70;;;20.50;;
63217;SDS011;49314;48.278;16.378;2024-01-30T02:38:12;21.45;;;19.20;;
63217;SDS011;49314;48.278;16.378;2024-01-30T02:40:37;18.73;;;16.92;;
63217;SDS011;49314;48.278;16.378;2024-01-30T02:43:03;24.67;;;22.55;;
63217;SDS011;49314;48.278;16.378;2024-01-30T02:45:28;24.30;;;22.13;;
63217;SDS011;49314;48.278;16.378;2024-01-30T02:47:53;22.83;;;20.65;;
63217;SDS011;49314;48.278;16.378;2024-01-30T02:50:19;21.67;;;19.80;;
63217;SDS011;49314;48.278;16.378;2024-01-30T02:52:44;24.48;;;22.45;;
63217;SDS011;49314;48.278;16.378;2024-01-30T02:55:10;24.02;;;22.17;;
63217;SDS011;49314;48.278;16.378;2024-01-30T02:57:35;24.05;;;21.88;;
63217;SDS011;49314;48.278;16.378;2024-01-30T03:00:00;20.52;;;18.52;;
63217;SDS011;49314;48.278;16.378;2024-01-30T03:02:26;21.20;;;19.05;;
63217;SDS011;49314;48.278;16.378;2024-01-30T03:04:51;19.73;;;17.83;;
63217;SDS011;49314;48.278;16.378;2024-01-30T03:07:16;19.38;;;16.27;;
63217;SDS011;49314;48.278;16.378;2024-01-30T03:09:41;20.33;;;17.63;;
63217;SDS011;49314;48.278;16.378;2024-01-30T03:12:08;18.52;;;16.70;;
63217;SDS011;49314;48.278;16.378;2024-01-30T03:14:34;23.58;;;21.60;;
63217;SDS011;49314;48.278;16.378;2024-01-30T03:16:59;22.45;;;20.15;;
63217;SDS011;49314;48.278;16.378;2024-01-30T03:19:24;24.23;;;21.95;;
63217;SDS011;49314;48.278;16.378;2024-01-30T03:21:50;27.05;;;24.77;;
63217;SDS011;49314;48.278;16.378;2024-01-30T03:24:15;25.25;;;22.88;;
63217;SDS011;49314;48.278;16.378;2024-01-30T03:26:40;22.92;;;20.80;;
63217;SDS011;49314;48.278;16.378;2024-01-30T03:29:05;22.30;;;20.27;;
63217;SDS011;49314;48.278;16.378;2024-01-30T03:31:31;24.15;;;22.10;;
63217;SDS011;49314;48.278;16.378;2024-01-30T03:33:56;25.35;;;23.05;;
63217;SDS011;49314;48.278;16.378;2024-01-30T03:36:21;21.92;;;19.73;;
63217;SDS011;49314;48.278;16.378;2024-01-30T03:38:47;21.70;;;19.50;;
63217;SDS011;49314;48.278;16.378;2024-01-30T03:41:12;22.70;;;20.40;;
63217;SDS011;49314;48.278;16.378;2024-01-30T03:43:37;24.42;;;22.33;;
63217;SDS011;49314;48.278;16.378;2024-01-30T03:46:03;20.98;;;17.10;;
63217;SDS011;49314;48.278;16.378;2024-01-30T03:48:28;22.73;;;20.52;;
63217;SDS011;49314;48.278;16.378;2024-01-30T03:50:53;23.10;;;20.60;;
63217;SDS011;49314;48.278;16.378;2024-01-30T03:53:19;23.08;;;21.10;;
63217;SDS011;49314;48.278;16.378;2024-01-30T03:55:44;26.95;;;24.27;;
63217;SDS011;49314;48.278;16.378;2024-01-30T03:58:09;24.20;;;22.15;;
63217;SDS011;49314;48.278;16.378;2024-01-30T04:00:34;25.70;;;23.20;;
63217;SDS011;49314;48.278;16.378;2024-01-30T04:03:00;27.27;;;24.63;;
63217;SDS011;49314;48.278;16.378;2024-01-30T04:05:25;20.52;;;18.63;;
63217;SDS011;49314;48.278;16.378;2024-01-30T04:07:50;19.88;;;17.75;;
63217;SDS011;49314;48.278;16.378;2024-01-30T04:10:16;23.38;;;20.33;;
63217;SDS011;49314;48.278;16.378;2024-01-30T04:12:41;21.38;;;19.38;;
63217;SDS011;49314;48.278;16.378;2024-01-30T04:15:06;19.95;;;18.20;;
63217;SDS011;49314;48.278;16.378;2024-01-30T04:17:32;23.33;;;21.17;;
63217;SDS011;49314;48.278;16.378;2024-01-30T04:19:58;23.88;;;21.60;;
63217;SDS011;49314;48.278;16.378;2024-01-30T04:22:23;30.80;;;28.17;;
63217;SDS011;49314;48.278;16.378;2024-01-30T04:24:48;27.73;;;25.33;;
63217;SDS011;49314;48.278;16.378;2024-01-30T04:27:13;22.75;;;20.52;;
63217;SDS011;49314;48.278;16.378;2024-01-30T04:29:39;25.13;;;21.52;;
63217;SDS011;49314;48.278;16.378;2024-01-30T04:32:04;20.42;;;18.17;;
63217;SDS011;49314;48.278;16.378;2024-01-30T04:34:29;26.95;;;24.58;;
63217;SDS011;49314;48.278;16.378;2024-01-30T04:36:55;20.63;;;18.08;;
63217;SDS011;49314;48.278;16.378;2024-01-30T04:39:20;28.92;;;26.13;;
63217;SDS011;49314;48.278;16.378;2024-01-30T04:41:45;23.45;;;21.05;;
63217;SDS011;49314;48.278;16.378;2024-01-30T04:44:10;25.25;;;22.98;;
63217;SDS011;49314;48.278;16.378;2024-01-30T04:46:36;23.42;;;21.23;;
63217;SDS011;49314;48.278;16.378;2024-01-30T04:49:01;22.35;;;19.48;;
63217;SDS011;49314;48.278;16.378;2024-01-30T04:51:26;27.17;;;24.73;;
63217;SDS011;49314;48.278;16.378;2024-01-30T04:53:52;24.45;;;22.17;;
63217;SDS011;49314;48.278;16.378;2024-01-30T04:56:17;32.78;;;30.38;;
63217;SDS011;49314;48.278;16.378;2024-01-30T04:58:42;21.27;;;19.38;;
63217;SDS011;49314;48.278;16.378;2024-01-30T05:01:08;29.23;;;26.67;;
63217;SDS011;49314;48.278;16.378;2024-01-30T05:03:33;29.10;;;26.50;;
63217;SDS011;49314;48.278;16.378;2024-01-30T05:05:59;29.15;;;26.77;;
63217;SDS011;49314;48.278;16.378;2024-01-30T05:08:24;27.48;;;25.20;;
63217;SDS011;49314;48.278;16.378;2024-01-30T05:10:50;21.70;;;19.60;;
63217;SDS011;49314;48.278;16.378;2024-01-30T05:13:15;23.30;;;21.02;;
63217;SDS011;49314;48.278;16.378;2024-01-30T05:15:40;24.15;;;21.90;;
63217;SDS011;49314;48.278;16.378;2024-01-30T05:18:05;24.30;;;22.00;;
63217;SDS011;49314;48.278;16.378;2024-01-30T05:20:31;25.95;;;23.25;;
63217;SDS011;49314;48.278;16.378;2024-01-30T05:22:56;22.58;;;20.38;;
63217;SDS011;49314;48.278;16.378;2024-01-30T05:25:21;29.55;;;27.08;;
63217;SDS011;49314;48.278;16.378;2024-01-30T05:27:47;25.65;;;22.98;;
63217;SDS011;49314;48.278;16.378;2024-01-30T05:30:12;24.65;;;22.20;;
63217;SDS011;49314;48.278;16.378;2024-01-30T05:32:37;22.33;;;18.10;;
63217;SDS011;49314;48.278;16.378;2024-01-30T05:35:03;24.08;;;21.85;;
63217;SDS011;49314;48.278;16.378;2024-01-30T05:37:29;27.95;;;25.27;;
63217;SDS011;49314;48.278;16.378;2024-01-30T05:39:54;25.00;;;20.60;;
63217;SDS011;49314;48.278;16.378;2024-01-30T05:42:19;30.67;;;27.80;;
63217;SDS011;49314;48.278;16.378;2024-01-30T05:44:44;26.80;;;24.30;;
63217;SDS011;49314;48.278;16.378;2024-01-30T05:47:10;19.88;;;16.60;;
63217;SDS011;49314;48.278;16.378;2024-01-30T05:49:35;26.98;;;24.27;;
63217;SDS011;49314;48.278;16.378;2024-01-30T05:52:02;24.38;;;21.98;;
63217;SDS011;49314;48.278;16.378;2024-01-30T05:54:27;25.30;;;22.95;;
63217;SDS011;49314;48.278;16.378;2024-01-30T05:56:52;22.60;;;20.00;;
63217;SDS011;49314;48.278;16.378;2024-01-30T05:59:17;24.98;;;22.52;;
63217;SDS011;49314;48.278;16.378;2024-01-30T06:01:46;29.58;;;27.17;;
63217;SDS011;49314;48.278;16.378;2024-01-30T06:04:12;23.88;;;21.25;;
63217;SDS011;49314;48.278;16.378;2024-01-30T06:06:37;24.77;;;20.75;;
63217;SDS011;49314;48.278;16.378;2024-01-30T06:09:02;24.52;;;22.15;;
63217;SDS011;49314;48.278;16.378;2024-01-30T06:11:28;23.48;;;20.30;;
63217;SDS011;49314;48.278;16.378;2024-01-30T06:13:53;22.25;;;19.98;;
63217;SDS011;49314;48.278;16.378;2024-01-30T06:16:18;27.00;;;24.58;;
63217;SDS011;49314;48.278;16.378;2024-01-30T06:18:46;22.00;;;18.88;;
63217;SDS011;49314;48.278;16.378;2024-01-30T06:21:11;23.15;;;20.90;;
63217;SDS011;49314;48.278;16.378;2024-01-30T06:23:36;22.40;;;19.58;;
63217;SDS011;49314;48.278;16.378;2024-01-30T06:26:01;29.05;;;26.63;;
63217;SDS011;49314;48.278;16.378;2024-01-30T06:28:27;26.05;;;23.40;;
63217;SDS011;49314;48.278;16.378;2024-01-30T06:30:52;20.02;;;16.70;;
63217;SDS011;49314;48.278;16.378;2024-01-30T06:33:17;20.88;;;18.80;;
63217;SDS011;49314;48.278;16.378;2024-01-30T06:35:42;24.02;;;21.63;;
63217;SDS011;49314;48.278;16.378;2024-01-30T06:38:08;23.52;;;21.23;;
63217;SDS011;49314;48.278;16.378;2024-01-30T06:40:34;22.92;;;20.65;;
63217;SDS011;49314;48.278;16.378;2024-01-30T06:42:59;27.73;;;25.20;;
63217;SDS011;49314;48.278;16.378;2024-01-30T06:45:24;25.17;;;19.25;;
63217;SDS011;49314;48.278;16.378;2024-01-30T06:47:49;25.42;;;23.20;;
63217;SDS011;49314;48.278;16.378;2024-01-30T06:50:15;24.15;;;21.73;;
63217;SDS011;49314;48.278;16.378;2024-01-30T06:52:40;22.27;;;20.17;;
63217;SDS011;49314;48.278;16.378;2024-01-30T06:55:05;24.92;;;22.70;;
63217;SDS011;49314;48.278;16.378;2024-01-30T06:57:31;26.17;;;23.80;;
63217;SDS011;49314;48.278;16.378;2024-01-30T06:59:56;22.75;;;20.33;;
63217;SDS011;49314;48.278;16.378;2024-01-30T07:02:22;26.40;;;22.33;;
63217;SDS011;49314;48.278;16.378;2024-01-30T07:04:47;27.65;;;24.52;;
63217;SDS011;49314;48.278;16.378;2024-01-30T07:07:12;26.63;;;19.55;;
63217;SDS011;49314;48.278;16.378;2024-01-30T07:09:38;21.75;;;18.10;;
63217;SDS011;49314;48.278;16.378;2024-01-30T07:12:04;20.67;;;18.58;;
63217;SDS011;49314;48.278;16.378;2024-01-30T07:14:29;21.98;;;19.85;;
63217;SDS011;49314;48.278;16.378;2024-01-30T07:16:54;22.27;;;20.08;;
63217;SDS011;49314;48.278;16.378;2024-01-30T07:19:20;26.35;;;23.92;;
63217;SDS011;49314;48.278;16.378;2024-01-30T07:21:45;25.73;;;22.58;;
63217;SDS011;49314;48.278;16.378;2024-01-30T07:24:11;24.48;;;19.88;;
63217;SDS011;49314;48.278;16.378;2024-01-30T07:26:36;22.42;;;20.17;;
63217;SDS011;49314;48.278;16.378;2024-01-30T07:29:01;24.25;;;21.70;;
63217;SDS011;49314;48.278;16.378;2024-01-30T07:31:27;23.75;;;21.02;;
63217;SDS011;49314;48.278;16.378;2024-01-30T07:33:52;22.27;;;20.15;;
63217;SDS011;49314;48.278;16.378;2024-01-30T07:36:18;23.58;;;17.52;;
63217;SDS011;49314;48.278;16.378;2024-01-30T07:38:43;26.25;;;19.88;;
63217;SDS011;49314;48.278;16.378;2024-01-30T07:41:08;20.73;;;18.63;;
63217;SDS011;49314;48.278;16.378;2024-01-30T07:43:34;24.60;;;19.30;;
63217;SDS011;49314;48.278;16.378;2024-01-30T07:45:59;24.77;;;19.35;;
63217;SDS011;49314;48.278;16.378;2024-01-30T07:48:26;25.42;;;23.10;;
63217;SDS011;49314;48.278;16.378;2024-01-30T07:50:53;21.95;;;17.83;;
63217;SDS011;49314;48.278;16.378;2024-01-30T07:53:18;22.08;;;20.02;;
63217;SDS011;49314;48.278;16.378;2024-01-30T07:55:44;22.35;;;19.10;;
63217;SDS011;49314;48.278;16.378;2024-01-30T07:58:11;19.60;;;16.65;;
63217;SDS011;49314;48.278;16.378;2024-01-30T08:00:37;19.63;;;17.55;;
63217;SDS011;49314;48.278;16.378;2024-01-30T08:03:02;20.58;;;18.42;;
63217;SDS011;49314;48.278;16.378;2024-01-30T08:05:27;17.83;;;15.70;;
63217;SDS011;49314;48.278;16.378;2024-01-30T08:07:53;20.77;;;17.25;;
63217;SDS011;49314;48.278;16.378;2024-01-30T08:10:18;17.60;;;15.85;;
63217;SDS011;49314;48.278;16.378;2024-01-30T08:12:44;18.60;;;16.20;;
63217;SDS011;49314;48.278;16.378;2024-01-30T08:15:09;18.42;;;16.38;;
63217;SDS011;49314;48.278;16.378;2024-01-30T08:17:35;22.98;;;17.90;;
63217;SDS011;49314;48.278;16.378;2024-01-30T08:20:00;22.70;;;17.67;;
63217;SDS011;49314;48.278;16.378;2024-01-30T08:22:25;23.17;;;18.38;;
63217;SDS011;49314;48.278;16.378;2024-01-30T08:24:50;19.70;;;17.67;;
63217;SDS011;49314;48.278;16.378;2024-01-30T08:27:16;18.92;;;15.95;;
63217;SDS011;49314;48.278;16.378;2024-01-30T08:29:41;19.33;;;16.35;;
63217;SDS011;49314;48.278;16.378;2024-01-30T08:32:06;18.48;;;15.07;;
63217;SDS011;49314;48.278;16.378;2024-01-30T08:34:32;16.90;;;15.10;;
63217;SDS011;49314;48.278;16.378;2024-01-30T08:36:57;18.80;;;15.63;;
63217;SDS011;49314;48.278;16.378;2024-01-30T08:39:22;15.10;;;13.50;;
63217;SDS011;49314;48.278;16.378;2024-01-30T08:41:48;20.05;;;15.57;;
63217;SDS011;49314;48.278;16.378;2024-01-30T08:44:13;19.10;;;13.98;;
63217;SDS011;49314;48.278;16.378;2024-01-30T08:46:38;17.58;;;14.68;;
63217;SDS011;49314;48.278;16.378;2024-01-30T08:49:04;17.10;;;13.30;;
63217;SDS011;49314;48.278;16.378;2024-01-30T08:51:30;17.50;;;14.13;;
63217;SDS011;49314;48.278;16.378;2024-01-30T08:53:55;15.02;;;13.32;;
63217;SDS011;49314;48.278;16.378;2024-01-30T08:56:20;16.92;;;14.65;;
63217;SDS011;49314;48.278;16.378;2024-01-30T08:58:45;17.45;;;15.65;;
63217;SDS011;49314;48.278;16.378;2024-01-30T09:01:11;16.95;;;14.63;;
63217;SDS011;49314;48.278;16.378;2024-01-30T09:03:36;16.67;;;15.13;;
63217;SDS011;49314;48.278;16.378;2024-01-30T09:06:07;17.48;;;15.10;;
63217;SDS011;49314;48.278;16.378;2024-01-30T09:08:33;14.90;;;13.40;;
63217;SDS011;49314;48.278;16.378;2024-01-30T09:10:58;19.20;;;15.95;;
63217;SDS011;49314;48.278;16.378;2024-01-30T09:13:23;15.40;;;13.88;;
63217;SDS011;49314;48.278;16.378;2024-01-30T09:15:48;19.35;;;15.20;;
63217;SDS011;49314;48.278;16.378;2024-01-30T09:18:14;16.75;;;15.10;;
63217;SDS011;49314;48.278;16.378;2024-01-30T09:20:39;17.20;;;15.13;;
63217;SDS011;49314;48.278;16.378;2024-01-30T09:23:04;18.40;;;15.25;;
63217;SDS011;49314;48.278;16.378;2024-01-30T09:25:29;17.05;;;14.52;;
63217;SDS011;49314;48.278;16.378;2024-01-30T09:27:55;18.58;;;16.05;;
63217;SDS011;49314;48.278;16.378;2024-01-30T09:30:20;18.30;;;16.60;;
63217;SDS011;49314;48.278;16.378;2024-01-30T09:32:45;16.77;;;15.02;;
63217;SDS011;49314;48.278;16.378;2024-01-30T09:35:10;26.70;;;16.77;;
63217;SDS011;49314;48.278;16.378;2024-01-30T09:37:36;18.13;;;14.95;;
63217;SDS011;49314;48.278;16.378;2024-01-30T09:40:01;18.58;;;15.23;;
63217;SDS011;49314;48.278;16.378;2024-01-30T09:42:28;16.67;;;14.63;;
63217;SDS011;49314;48.278;16.378;2024-01-30T09:44:55;15.80;;;14.20;;
63217;SDS011;49314;48.278;16.378;2024-01-30T09:47:21;17.67;;;14.73;;
63217;SDS011;49314;48.278;16.378;2024-01-30T09:49:46;15.60;;;14.00;;
63217;SDS011;49314;48.278;16.378;2024-01-30T09:52:11;16.92;;;15.27;;
63217;SDS011;49314;48.278;16.378;2024-01-30T09:54:37;19.58;;;17.52;;
63217;SDS011;49314;48.278;16.378;2024-01-30T09:57:03;17.55;;;15.73;;
63217;SDS011;49314;48.278;16.378;2024-01-30T09:59:28;19.58;;;17.73;;
63217;SDS011;49314;48.278;16.378;2024-01-30T10:01:54;23.80;;;17.73;;
63217;SDS011;49314;48.278;16.378;2024-01-30T10:04:19;18.00;;;16.00;;
63217;SDS011;49314;48.278;16.378;2024-01-30T10:06:44;19.88;;;17.67;;
63217;SDS011;49314;48.278;16.378;2024-01-30T10:09:09;21.15;;;19.05;;
63217;SDS011;49314;48.278;16.378;2024-01-30T10:11:36;17.92;;;16.23;;
63217;SDS011;49314;48.278;16.378;2024-01-30T10:14:01;17.88;;;16.13;;
63217;SDS011;49314;48.278;16.378;2024-01-30T10:16:27;18.20;;;15.95;;
63217;SDS011;49314;48.278;16.378;2024-01-30T10:18:52;16.98;;;14.95;;
63217;SDS011;49314;48.278;16.378;2024-01-30T10:21:17;19.05;;;17.20;;
63217;SDS011;49314;48.278;16.378;2024-01-30T10:23:43;16.60;;;15.02;;
63217;SDS011;49314;48.278;16.378;2024-01-30T10:26:09;16.20;;;13.93;;
63217;SDS011;49314;48.278;16.378;2024-01-30T10:28:34;17.27;;;15.40;;
63217;SDS011;49314;48.278;16.378;2024-01-30T10:31:00;16.73;;;14.18;;
63217;SDS011;49314;48.278;16.378;2024-01-30T10:33:26;14.32;;;12.88;;
63217;SDS011;49314;48.278;16.378;2024-01-30T10:35:53;16.25;;;12.48;;
63217;SDS011;49314;48.278;16.378;2024-01-30T10:38:19;16.25;;;12.73;;
63217;SDS011;49314;48.278;16.378;2024-01-30T10:40:44;14.40;;;13.00;;
63217;SDS011;49314;48.278;16.378;2024-01-30T10:43:10;14.07;;;12.43;;
63217;SDS011;49314;48.278;16.378;2024-01-30T10:45:36;16.63;;;13.95;;
63217;SDS011;49314;48.278;16.378;2024-01-30T10:48:03;14.50;;;13.15;;
63217;SDS011;49314;48.278;16.378;2024-01-30T10:50:30;15.05;;;13.45;;
63217;SDS011;49314;48.278;16.378;2024-01-30T10:52:55;15.18;;;12.13;;
63217;SDS011;49314;48.278;16.378;2024-01-30T10:55:22;19.85;;;13.80;;
63217;SDS011;49314;48.278;16.378;2024-01-30T10:57:48;15.00;;;13.60;;
63217;SDS011;49314;48.278;16.378;2024-01-30T11:00:14;12.98;;;11.68;;
63217;SDS011;49314;48.278;16.378;2024-01-30T11:02:44;17.10;;;12.38;;
63217;SDS011;49314;48.278;16.378;2024-01-30T11:05:10;16.48;;;13.20;;
63217;SDS011;49314;48.278;16.378;2024-01-30T11:07:38;13.48;;;12.10;;
63217;SDS011;49314;48.278;16.378;2024-01-30T11:10:04;14.43;;;12.90;;
63217;SDS011;49314;48.278;16.378;2024-01-30T11:12:30;13.23;;;11.48;;
63217;SDS011;49314;48.278;16.378;2024-01-30T11:15:05;14.75;;;12.23;;
63217;SDS011;49314;48.278;16.378;2024-01-30T11:20:25;20.38;;;15.13;;
63217;SDS011;49314;48.278;16.378;2024-01-30T11:22:51;16.35;;;13.98;;
63217;SDS011;49314;48.278;16.378;2024-01-30T11:25:17;16.67;;;14.95;;
63217;SDS011;49314;48.278;16.378;2024-01-30T11:27:43;17.70;;;14.48;;
63217;SDS011;49314;48.278;16.378;2024-01-30T11:30:09;15.88;;;13.45;;
63217;SDS011;49314;48.278;16.378;2024-01-30T11:32:35;17.83;;;13.57;;
63217;SDS011;49314;48.278;16.378;2024-01-30T11:35:00;17.40;;;15.07;;
63217;SDS011;49314;48.278;16.378;2024-01-30T11:37:25;15.05;;;13.40;;
63217;SDS011;49314;48.278;16.378;2024-01-30T11:39:53;16.25;;;14.65;;
63217;SDS011;49314;48.278;16.378;2024-01-30T11:42:18;15.35;;;13.75;;
63217;SDS011;49314;48.278;16.378;2024-01-30T11:44:47;16.85;;;13.52;;
63217;SDS011;49314;48.278;16.378;2024-01-30T11:47:12;16.58;;;15.07;;
63217;SDS011;49314;48.278;16.378;2024-01-30T11:49:38;15.18;;;13.68;;
63217;SDS011;49314;48.278;16.378;2024-01-30T11:52:04;16.95;;;14.02;;
63217;SDS011;49314;48.278;16.378;2024-01-30T11:54:29;13.23;;;11.90;;
63217;SDS011;49314;48.278;16.378;2024-01-30T11:56:54;14.32;;;12.90;;
63217;SDS011;49314;48.278;16.378;2024-01-30T11:59:20;15.48;;;13.13;;
63217;SDS011;49314;48.278;16.378;2024-01-30T12:01:45;16.42;;;13.48;;
63217;SDS011;49314;48.278;16.378;2024-01-30T12:04:11;15.55;;;13.63;;
63217;SDS011;49314;48.278;16.378;2024-01-30T12:06:36;14.88;;;13.32;;
63217;SDS011;49314;48.278;16.378;2024-01-30T12:09:02;15.95;;;13.63;;
63217;SDS011;49314;48.278;16.378;2024-01-30T12:11:32;15.10;;;13.23;;
63217;SDS011;49314;48.278;16.378;2024-01-30T12:13:58;14.75;;;12.05;;
63217;SDS011;49314;48.278;16.378;2024-01-30T12:16:23;15.63;;;14.10;;
63217;SDS011;49314;48.278;16.378;2024-01-30T12:18:49;16.13;;;14.57;;
63217;SDS011;49314;48.278;16.378;2024-01-30T12:21:17;15.93;;;14.18;;
63217;SDS011;49314;48.278;16.378;2024-01-30T12:23:43;17.73;;;14.95;;
63217;SDS011;49314;48.278;16.378;2024-01-30T12:26:08;14.80;;;13.27;;
63217;SDS011;49314;48.278;16.378;2024-01-30T12:28:34;14.07;;;12.70;;
63217;SDS011;49314;48.278;16.378;2024-01-30T12:31:02;17.42;;;15.60;;
63217;SDS011;49314;48.278;16.378;2024-01-30T12:33:28;17.13;;;15.40;;
63217;SDS011;49314;48.278;16.378;2024-01-30T12:35:54;16.50;;;14.55;;
63217;SDS011;49314;48.278;16.378;2024-01-30T12:38:19;15.02;;;13.60;;
63217;SDS011;49314;48.278;16.378;2024-01-30T12:40:44;15.15;;;13.68;;
63217;SDS011;49314;48.278;16.378;2024-01-30T12:43:10;14.85;;;13.38;;
63217;SDS011;49314;48.278;16.378;2024-01-30T12:45:36;14.25;;;12.80;;
63217;SDS011;49314;48.278;16.378;2024-01-30T12:48:01;15.75;;;14.05;;
63217;SDS011;49314;48.278;16.378;2024-01-30T12:50:27;15.48;;;12.65;;
63217;SDS011;49314;48.278;16.378;2024-01-30T12:52:52;15.15;;;13.55;;
63217;SDS011;49314;48.278;16.378;2024-01-30T12:55:17;14.52;;;13.13;;
63217;SDS011;49314;48.278;16.378;2024-01-30T12:57:43;15.63;;;14.05;;
63217;SDS011;49314;48.278;16.378;2024-01-30T13:00:08;15.20;;;13.80;;
63217;SDS011;49314;48.278;16.378;2024-01-30T13:02:34;15.63;;;14.13;;
63217;SDS011;49314;48.278;16.378;2024-01-30T13:04:59;15.07;;;13.50;;
63217;SDS011;49314;48.278;16.378;2024-01-30T13:07:25;13.13;;;10.95;;
63217;SDS011;49314;48.278;16.378;2024-01-30T13:09:50;15.50;;;13.90;;
63217;SDS011;49314;48.278;16.378;2024-01-30T13:12:15;14.45;;;11.32;;
63217;SDS011;49314;48.278;16.378;2024-01-30T13:14:40;13.20;;;11.00;;
63217;SDS011;49314;48.278;16.378;2024-01-30T13:17:06;15.85;;;14.13;;
63217;SDS011;49314;48.278;16.378;2024-01-30T13:19:31;16.88;;;14.77;;
63217;SDS011;49314;48.278;16.378;2024-01-30T13:21:56;13.02;;;11.35;;
63217;SDS011;49314;48.278;16.378;2024-01-30T13:24:22;13.95;;;11.35;;
63217;SDS011;49314;48.278;16.378;2024-01-30T13:26:47;13.57;;;12.20;;
63217;SDS011;49314;48.278;16.378;2024-01-30T13:29:13;14.38;;;12.98;;
63217;SDS011;49314;48.278;16.378;2024-01-30T13:31:38;13.20;;;11.82;;
63217;SDS011;49314;48.278;16.378;2024-01-30T13:34:04;12.80;;;11.50;;
63217;SDS011;49314;48.278;16.378;2024-01-30T13:36:31;15.38;;;12.05;;
63217;SDS011;49314;48.278;16.378;2024-01-30T13:38:56;15.90;;;12.27;;
63217;SDS011;49314;48.278;16.378;2024-01-30T13:41:21;12.10;;;11.02;;
63217;SDS011;49314;48.278;16.378;2024-01-30T13:43:47;11.27;;;10.20;;
63217;SDS011;49314;48.278;16.378;2024-01-30T13:46:13;13.70;;;12.25;;
63217;SDS011;49314;48.278;16.378;2024-01-30T13:48:39;12.98;;;10.85;;
63217;SDS011;49314;48.278;16.378;2024-01-30T13:51:04;12.57;;;11.38;;
63217;SDS011;49314;48.278;16.378;2024-01-30T13:53:29;11.30;;;10.13;;
63217;SDS011;49314;48.278;16.378;2024-01-30T13:55:55;13.55;;;12.20;;
63217;SDS011;49314;48.278;16.378;2024-01-30T13:58:20;12.88;;;10.48;;
63217;SDS011;49314;48.278;16.378;2024-01-30T14:00:45;13.25;;;11.95;;